WAT1417 CYHZ-CYFC
Flight info
| Callsign | WAT1417 |
|---|---|
| Flight time | N/A |
| Altitude | 8000 |
| Route | VIBMA |
| Aircraft | K100/L-SBDGRY/S |
Departure
| Time | 2026-05-04 22:23 |
|---|---|
| Airport | Halifax / Stanfield International Airport (CYHZ) |
Arrival
| Time | N/A |
|---|---|
| Airport | Fredericton International Airport (CYFC) |
| Time | Latitude | Longitude | Altitude | Speed | Heading |
|---|---|---|---|---|---|
| 2026-05-04 22:10 | 44.87636 | -63.52149 | 451 ft | 0 kts | 287° |
| 2026-05-04 22:17 | 44.87636 | -63.52164 | 451 ft | 9 kts | 240° |
| 2026-05-04 22:18 | 44.87642 | -63.52088 | 451 ft | 11 kts | 97° |
| 2026-05-04 22:18 | 44.87685 | -63.51947 | 451 ft | 25 kts | 34° |
| 2026-05-04 22:18 | 44.87852 | -63.51790 | 451 ft | 32 kts | 38° |
| 2026-05-04 22:18 | 44.87913 | -63.51725 | 451 ft | 34 kts | 36° |
| 2026-05-04 22:19 | 44.88381 | -63.51292 | 451 ft | 12 kts | 44° |
| 2026-05-04 22:19 | 44.88404 | -63.51186 | 450 ft | 11 kts | 123° |
| 2026-05-04 22:19 | 44.88378 | -63.51135 | 450 ft | 2 kts | 126° |
| 2026-05-04 22:20 | 44.88375 | -63.51129 | 450 ft | 1 kts | 125° |
| 2026-05-04 22:20 | 44.88370 | -63.51119 | 450 ft | 0 kts | 125° |
| 2026-05-04 22:20 | 44.88369 | -63.51118 | 450 ft | 0 kts | 125° |
| 2026-05-04 22:20 | 44.88358 | -63.51093 | 450 ft | 8 kts | 123° |
| 2026-05-04 22:21 | 44.88323 | -63.51023 | 449 ft | 4 kts | 124° |
| 2026-05-04 22:21 | 44.88289 | -63.51021 | 448 ft | 0 kts | 219° |
| 2026-05-04 22:23 | 44.86699 | -63.52270 | 1306 ft | 91 kts | 217° |
| 2026-05-04 22:23 | 44.86176 | -63.52674 | 1869 ft | 84 kts | 218° |
| 2026-05-04 22:23 | 44.85620 | -63.52999 | 2341 ft | 88 kts | 217° |
| 2026-05-04 22:23 | 44.85044 | -63.53308 | 2794 ft | 89 kts | 216° |
| 2026-05-04 22:24 | 44.84463 | -63.53601 | 3236 ft | 88 kts | 217° |
| 2026-05-04 22:24 | 44.84267 | -63.53693 | 3395 ft | 88 kts | 217° |